Time;durP1;ratioP1;P1;durP2;ratioP2;P2;SDS_P1;SDS_P2;PMS_P1;PMS_P2;Temp;Humidity;BMP_temperature;BMP_pressure;BME280_temperature;BME280_humidity;BME280_pressure;Samples;Min_cycle;Max_cycle;Signal;HPM_P1;HPM_P2
2020/12/21 00:01:36;;;;;;;8.73;7.03;;;;;;;6.77;82.78;101344.59;5045592;28;20201;-65
2020/12/21 00:04:03;;;;;;;11.07;7.93;;;;;;;6.77;83.04;101342.81;5034975;28;20209;-64
2020/12/21 00:06:29;;;;;;;10.83;8.00;;;;;;;6.77;82.84;101341.97;5039978;28;20205;-65
2020/12/21 00:08:55;;;;;;;9.63;7.53;;;;;;;6.77;83.15;101340.19;5039916;28;20229;-65
2020/12/21 00:11:21;;;;;;;12.47;8.30;;;;;;;6.79;82.97;101340.13;5048136;28;20681;-65
2020/12/21 00:13:48;;;;;;;11.13;7.87;;;;;;;6.81;82.69;101338.25;5047625;28;20579;-64
2020/12/21 00:16:14;;;;;;;12.27;7.93;;;;;;;6.82;82.78;101332.91;5045181;28;20699;-65
2020/12/21 00:18:40;;;;;;;10.23;7.47;;;;;;;6.81;82.92;101336.47;5047741;28;20229;-64
2020/12/21 00:21:09;;;;;;;10.37;7.33;;;;;;;6.83;82.38;101331.13;5046570;28;20210;-65
2020/12/21 00:23:35;;;;;;;11.23;7.80;;;;;;;6.82;83.38;101340.84;5046681;28;20217;-66
2020/12/21 00:26:01;;;;;;;10.37;7.23;;;;;;;6.83;83.02;101341.72;5045050;28;20201;-64
2020/12/21 00:28:27;;;;;;;13.07;7.90;;;;;;;6.81;83.31;101344.41;5046233;28;20258;-65
2020/12/21 00:30:53;;;;;;;9.40;7.50;;;;;;;6.80;83.36;101342.72;5036092;28;20210;-65
2020/12/21 00:33:19;;;;;;;11.73;7.30;;;;;;;6.79;82.77;101341.00;5046181;28;20231;-65
2020/12/21 00:35:45;;;;;;;9.37;7.00;;;;;;;6.79;82.58;101353.34;5038647;28;20662;-65
2020/12/21 00:38:12;;;;;;;9.10;6.60;;;;;;;6.77;82.52;101358.72;5052677;28;20226;-64
2020/12/21 00:40:38;;;;;;;9.20;6.77;;;;;;;6.77;82.91;101363.13;5048828;28;20218;-65
2020/12/21 00:43:04;;;;;;;9.17;6.97;;;;;;;6.75;82.97;101364.97;5048872;28;20239;-65
2020/12/21 00:45:30;;;;;;;8.67;6.80;;;;;;;6.74;83.22;101363.25;5048382;28;20213;-65
2020/12/21 00:47:56;;;;;;;8.17;6.93;;;;;;;6.74;82.82;101368.53;5050735;28;20233;-64
2020/12/21 00:50:22;;;;;;;11.00;7.20;;;;;;;6.74;82.37;101366.75;5051515;28;20228;-64
2020/12/21 00:52:48;;;;;;;8.83;6.50;;;;;;;6.75;82.56;101367.63;5047762;28;20206;-64
2020/12/21 00:55:15;;;;;;;10.00;6.97;;;;;;;6.75;83.03;101368.47;5048776;28;20209;-63
2020/12/21 00:57:41;;;;;;;8.93;6.20;;;;;;;6.74;82.46;101369.41;5031841;28;20324;-63
2020/12/21 01:00:08;;;;;;;7.43;6.00;;;;;;;6.74;82.46;101376.47;5043648;28;20202;-64
2020/12/21 01:02:34;;;;;;;7.70;5.90;;;;;;;6.72;82.57;101367.72;5045080;28;20210;-64
2020/12/21 01:05:00;;;;;;;6.57;5.17;;;;;;;6.71;82.16;101361.56;5041059;28;20201;-64
2020/12/21 01:07:26;;;;;;;8.60;5.03;;;;;;;6.70;82.57;101375.72;5043817;28;20230;-64
2020/12/21 01:09:52;;;;;;;7.57;5.37;;;;;;;6.70;82.67;101364.25;5049821;28;20225;-64
2020/12/21 01:12:19;;;;;;;6.10;4.93;;;;;;;6.67;82.59;101367.88;5043156;28;20707;-64
2020/12/21 01:14:45;;;;;;;6.50;5.67;;;;;;;6.66;82.39;101376.75;5051788;28;20212;-64
2020/12/21 01:17:11;;;;;;;7.67;5.67;;;;;;;6.64;81.96;101375.94;5052290;28;20229;-64
2020/12/21 01:19:37;;;;;;;6.73;5.90;;;;;;;6.60;81.92;101371.69;5031545;28;20228;-64
2020/12/21 01:22:04;;;;;;;7.63;5.87;;;;;;;6.58;82.12;101368.22;5037316;28;20205;-64
2020/12/21 01:24:30;;;;;;;9.17;5.33;;;;;;;6.55;82.26;101378.91;5040426;28;20224;-64
2020/12/21 01:26:56;;;;;;;6.07;5.27;;;;;;;6.51;82.11;101375.50;5031490;28;20202;-64
2020/12/21 01:29:23;;;;;;;7.73;6.17;;;;;;;6.47;81.69;101368.59;5032280;28;20240;-64
2020/12/21 01:31:49;;;;;;;8.53;6.47;;;;;;;6.45;81.88;101374.88;5032734;28;20603;-64
2020/12/21 01:34:15;;;;;;;9.07;6.20;;;;;;;6.42;81.98;101374.97;5043970;28;20631;-64
2020/12/21 01:36:41;;;;;;;8.13;5.87;;;;;;;6.39;81.68;101367.13;5031412;28;20209;-63
2020/12/21 01:39:08;;;;;;;10.43;6.03;;;;;;;6.36;81.58;101372.53;5052111;28;20274;-65
2020/12/21 01:41:34;;;;;;;9.23;5.80;;;;;;;6.32;81.54;101373.53;5051989;28;20221;-64
2020/12/21 01:44:00;;;;;;;7.03;5.40;;;;;;;6.30;81.63;101378.88;5037534;28;20197;-64
2020/12/21 01:46:27;;;;;;;9.53;5.70;;;;;;;6.27;81.78;101382.50;5051602;28;20201;-64
2020/12/21 01:48:54;;;;;;;9.37;5.20;;;;;;;6.26;81.59;101372.00;5049459;28;20315;-64
2020/12/21 01:51:22;;;;;;;6.70;5.47;;;;;;;6.26;82.10;101378.16;5051308;28;20201;-64
2020/12/21 01:53:50;;;;;;;8.40;5.17;;;;;;;6.26;81.81;101375.50;5037430;28;20264;-64
2020/12/21 01:56:17;;;;;;;9.13;5.60;;;;;;;6.23;82.17;101372.97;5032627;28;20453;-63
2020/12/21 01:58:43;;;;;;;9.80;5.63;;;;;;;6.21;81.83;101368.63;5051394;28;20229;-64
2020/12/21 02:01:12;;;;;;;9.17;5.60;;;;;;;6.19;82.16;101363.38;5048415;28;20202;-64
2020/12/21 02:03:39;;;;;;;6.90;5.43;;;;;;;6.15;81.69;101364.41;5050776;28;20209;-63
2020/12/21 02:06:06;;;;;;;6.53;5.23;;;;;;;6.12;81.67;101359.22;5038831;28;20198;-64
2020/12/21 02:08:32;;;;;;;10.53;5.60;;;;;;;6.10;82.02;101368.09;5037930;28;20844;-63
2020/12/21 02:10:58;;;;;;;9.93;6.80;;;;;;;6.06;81.63;101361.22;5045413;28;20264;-64
2020/12/21 02:13:24;;;;;;;8.90;5.57;;;;;;;6.03;82.04;101356.03;5041026;28;20629;-64
2020/12/21 02:15:50;;;;;;;7.83;5.37;;;;;;;6.00;81.99;101367.56;5051566;28;20209;-63
2020/12/21 02:18:17;;;;;;;9.93;5.70;;;;;;;5.97;82.03;101354.44;5047836;28;20226;-64
2020/12/21 02:20:44;;;;;;;7.97;5.70;;;;;;;5.94;81.87;101351.88;5046213;28;20275;-64
2020/12/21 02:23:10;;;;;;;7.87;5.90;;;;;;;5.91;81.65;101349.38;5051375;28;20304;-64
2020/12/21 02:25:36;;;;;;;9.90;6.70;;;;;;;5.88;82.17;101352.97;5051871;28;20205;-63
2020/12/21 02:28:02;;;;;;;11.53;6.17;;;;;;;5.85;82.16;101347.75;5050935;28;20229;-63
2020/12/21 02:30:28;;;;;;;9.37;6.07;;;;;;;5.83;81.93;101343.44;5035837;28;20229;-63
2020/12/21 02:32:55;;;;;;;8.63;5.90;;;;;;;5.80;82.31;101349.69;5041049;28;20588;-63
2020/12/21 02:35:21;;;;;;;9.50;6.80;;;;;;;5.77;82.33;101340.97;5049542;28;20202;-64
2020/12/21 02:37:48;;;;;;;9.33;6.57;;;;;;;5.74;82.22;101336.66;5050821;28;20326;-64
2020/12/21 02:40:14;;;;;;;10.53;6.53;;;;;;;5.72;81.91;101338.50;5051547;28;20214;-64
2020/12/21 02:42:41;;;;;;;9.30;6.90;;;;;;;5.69;82.25;101341.25;5048342;28;20202;-64
2020/12/21 02:45:07;;;;;;;12.90;6.20;;;;;;;5.68;82.38;101346.56;5045457;28;20210;-65
2020/12/21 02:47:33;;;;;;;8.27;5.77;;;;;;;5.65;82.40;101344.03;5050208;28;20251;-62
2020/12/21 02:49:59;;;;;;;7.63;5.47;;;;;;;5.65;82.56;101336.09;5036637;28;20272;-64
2020/12/21 02:52:25;;;;;;;6.57;5.83;;;;;;;5.64;82.79;101337.88;5046650;28;20745;-64
2020/12/21 02:54:52;;;;;;;10.03;5.83;;;;;;;5.64;82.64;101337.00;5053471;28;20206;-64
2020/12/21 02:57:18;;;;;;;9.43;5.60;;;;;;;5.64;82.65;101339.66;5055531;28;20244;-64
2020/12/21 02:59:44;;;;;;;8.70;5.43;;;;;;;5.65;82.81;101344.03;5053166;28;20258;-63
2020/12/21 03:02:10;;;;;;;11.83;6.63;;;;;;;5.65;82.75;101354.59;5053597;28;20205;-63
2020/12/21 03:04:36;;;;;;;8.90;5.43;;;;;;;5.65;82.86;101346.66;5052420;28;20216;-64
2020/12/21 03:07:02;;;;;;;9.80;5.30;;;;;;;5.65;83.03;101352.81;5049518;28;20292;-64
2020/12/21 03:09:28;;;;;;;8.87;5.67;;;;;;;5.66;83.00;101354.53;5047558;28;20229;-63
2020/12/21 03:11:55;;;;;;;8.07;5.23;;;;;;;5.66;83.03;101362.47;5051211;28;20205;-63
2020/12/21 03:14:21;;;;;;;9.57;5.67;;;;;;;5.67;83.09;101363.34;5051392;28;20211;-64
2020/12/21 03:16:47;;;;;;;7.60;5.63;;;;;;;5.68;83.03;101362.44;5051031;28;20206;-64
2020/12/21 03:19:14;;;;;;;9.20;5.27;;;;;;;5.67;82.57;101361.56;5052888;28;20274;-62
2020/12/21 03:21:40;;;;;;;8.40;5.73;;;;;;;5.66;83.02;101369.53;5045934;28;20671;-64
2020/12/21 03:24:06;;;;;;;10.10;5.77;;;;;;;5.65;83.21;101368.66;5048116;28;20292;-64
2020/12/21 03:26:32;;;;;;;8.87;6.07;;;;;;;5.64;83.12;101359.00;5049635;28;20387;-64
2020/12/21 03:28:59;;;;;;;10.63;5.80;;;;;;;5.64;82.82;101363.44;5050683;28;20225;-64
2020/12/21 03:31:25;;;;;;;9.23;6.57;;;;;;;5.62;83.06;101359.97;5054297;28;20271;-63
2020/12/21 03:33:51;;;;;;;9.43;5.80;;;;;;;5.62;83.40;101362.59;5040120;28;20650;-64
2020/12/21 03:36:17;;;;;;;8.87;5.67;;;;;;;5.61;83.23;101369.66;5037158;28;20574;-64
2020/12/21 03:38:43;;;;;;;13.07;6.73;;;;;;;5.61;83.00;101358.25;5047326;28;20718;-64
2020/12/21 03:41:09;;;;;;;8.93;5.93;;;;;;;5.61;83.15;101358.25;5042620;28;20678;-64
2020/12/21 03:43:35;;;;;;;8.50;5.77;;;;;;;5.58;83.17;101357.41;5053412;28;20215;-64
2020/12/21 03:46:02;;;;;;;10.80;5.27;;;;;;;5.58;83.29;101362.69;5053747;28;20209;-64
2020/12/21 03:48:28;;;;;;;6.43;5.77;;;;;;;5.55;83.07;101354.88;5040230;28;20234;-64
2020/12/21 03:50:54;;;;;;;8.97;5.93;;;;;;;5.55;83.00;101351.38;5041494;28;20260;-64
2020/12/21 03:53:20;;;;;;;11.37;6.37;;;;;;;5.55;83.07;101361.97;5053118;28;20197;-64
2020/12/21 03:55:46;;;;;;;9.00;5.37;;;;;;;5.51;83.14;101353.25;5052686;28;20197;-63
2020/12/21 03:58:13;;;;;;;9.53;5.67;;;;;;;5.51;83.13;101353.25;5042759;28;20233;-65
2020/12/21 04:00:40;;;;;;;9.70;5.27;;;;;;;5.49;82.96;101356.84;5040751;28;20555;-64
2020/12/21 04:03:07;;;;;;;10.13;5.70;;;;;;;5.47;82.64;101351.63;5050847;28;20233;-65
2020/12/21 04:05:33;;;;;;;12.63;5.20;;;;;;;5.43;83.28;101357.91;5053973;28;20206;-65
2020/12/21 04:07:59;;;;;;;7.10;5.03;;;;;;;5.42;83.00;101365.88;5037272;28;20227;-64
2020/12/21 04:10:25;;;;;;;9.60;5.60;;;;;;;5.38;83.08;101365.09;5045529;28;20267;-64
2020/12/21 04:12:51;;;;;;;10.23;5.80;;;;;;;5.35;83.01;101362.56;5033434;28;20772;-63
2020/12/21 04:15:17;;;;;;;9.90;6.33;;;;;;;5.32;83.10;101361.78;5039448;28;20293;-65
2020/12/21 04:17:43;;;;;;;9.57;6.30;;;;;;;5.29;83.15;101357.47;5040659;28;20226;-65
2020/12/21 04:20:10;;;;;;;11.57;6.80;;;;;;;5.27;83.12;101361.91;5036924;28;20259;-65
2020/12/21 04:22:36;;;;;;;8.33;6.57;;;;;;;5.25;82.94;101366.38;5052830;28;20229;-65
2020/12/21 04:25:03;;;;;;;11.20;7.00;;;;;;;5.22;83.06;101362.06;5037016;28;20206;-65
2020/12/21 04:27:29;;;;;;;9.13;6.60;;;;;;;5.20;83.10;101365.66;5039731;28;20665;-65
2020/12/21 04:29:55;;;;;;;9.40;6.90;;;;;;;5.18;83.20;101373.66;5051719;28;20279;-68
2020/12/21 04:32:21;;;;;;;9.53;7.60;;;;;;;5.16;83.23;101370.19;5046141;28;20667;-65
2020/12/21 04:34:47;;;;;;;11.67;7.17;;;;;;;5.14;83.24;101369.34;5033826;28;20202;-65
2020/12/21 04:37:14;;;;;;;13.57;8.67;;;;;;;5.15;83.54;101365.81;5036130;28;20720;-65
2020/12/21 04:39:40;;;;;;;14.37;8.30;;;;;;;5.15;83.46;101364.94;5044328;28;20232;-65
2020/12/21 04:42:06;;;;;;;14.67;8.77;;;;;;;5.16;83.39;101364.91;5033708;28;20213;-65
2020/12/21 04:44:32;;;;;;;14.10;8.93;;;;;;;5.17;83.41;101366.63;5046235;28;20296;-64
2020/12/21 04:46:59;;;;;;;13.30;7.60;;;;;;;5.18;83.35;101363.09;5032620;28;20673;-65
2020/12/21 04:49:25;;;;;;;12.07;8.33;;;;;;;5.20;83.63;101370.94;5034805;28;20226;-65
2020/12/21 04:51:51;;;;;;;13.63;8.67;;;;;;;5.21;83.90;101365.59;5034702;28;20233;-64
2020/12/21 04:54:19;;;;;;;14.13;8.97;;;;;;;5.24;83.95;101365.50;5044154;28;20248;-66
2020/12/21 04:56:45;;;;;;;14.07;8.67;;;;;;;5.24;83.91;101365.50;5042430;28;20266;-65
2020/12/21 04:59:12;;;;;;;17.80;10.13;;;;;;;5.24;83.93;101362.00;5037974;28;20651;-63
2020/12/21 05:01:39;;;;;;;18.43;9.50;;;;;;;5.24;84.08;101362.88;5031803;28;20206;-65
2020/12/21 05:04:05;;;;;;;15.80;8.43;;;;;;;5.26;83.96;101354.91;5034417;28;20260;-64
2020/12/21 05:06:31;;;;;;;13.80;8.83;;;;;;;5.26;84.04;101365.47;5050729;28;20206;-64
2020/12/21 05:09:03;;;;;;;18.10;9.97;;;;;;;5.26;84.14;101357.56;5052458;28;20252;-65
2020/12/21 05:11:30;;;;;;;18.83;9.97;;;;;;;5.27;83.96;101356.63;5047604;28;20206;-64
2020/12/21 05:14:06;;;;;;;16.13;9.73;;;;;;;5.27;83.92;101355.78;5042540;28;20300;-65
2020/12/21 05:16:32;;;;;;;14.87;9.43;;;;;;;5.26;84.03;101357.56;5034297;28;20194;-65
2020/12/21 05:18:59;;;;;;;15.80;9.47;;;;;;;5.25;84.12;101355.81;5032029;28;20222;-64
2020/12/21 05:21:29;;;;;;;13.77;9.13;;;;;;;5.25;83.93;101358.47;5031447;28;20220;-64
2020/12/21 05:23:56;;;;;;;15.27;8.97;;;;;;;5.23;84.04;101355.84;5032618;28;20210;-65
2020/12/21 05:26:26;;;;;;;14.20;9.63;;;;;;;5.23;84.35;101355.84;5031536;28;20206;-65
2020/12/21 05:28:54;;;;;;;10.90;8.43;;;;;;;5.22;84.16;101354.13;5051051;28;20221;-65
2020/12/21 05:31:20;;;;;;;10.67;8.37;;;;;;;5.20;84.29;101355.09;5051610;28;20205;-65
2020/12/21 05:33:46;;;;;;;13.40;8.20;;;;;;;5.20;84.34;101363.00;5037242;28;20202;-65
2020/12/21 05:36:13;;;;;;;16.30;9.10;;;;;;;5.17;84.26;101363.13;5052024;28;20198;-66
2020/12/21 05:38:41;;;;;;;16.13;9.97;;;;;;;5.16;84.37;101372.81;5036489;28;20300;-65
2020/12/21 05:41:09;;;;;;;14.40;8.57;;;;;;;5.16;84.19;101369.31;5038690;28;20228;-66
2020/12/21 05:43:37;;;;;;;14.10;8.53;;;;;;;5.15;84.30;101367.56;5038188;28;20252;-65
2020/12/21 05:46:08;;;;;;;18.00;9.20;;;;;;;5.14;84.35;101361.44;5043732;28;20198;-66
2020/12/21 05:48:37;;;;;;;14.87;8.27;;;;;;;5.14;84.31;101360.56;5040699;28;20232;-65
2020/12/21 05:51:05;;;;;;;9.33;7.43;;;;;;;5.13;84.02;101358.84;5037864;28;20236;-66
2020/12/21 05:53:38;;;;;;;13.50;8.43;;;;;;;5.13;84.18;101340.34;5040118;28;20235;-65
2020/12/21 05:56:04;;;;;;;14.83;7.80;;;;;;;5.12;84.42;101350.06;5050319;28;20677;-66
2020/12/21 05:58:33;;;;;;;11.37;7.80;;;;;;;5.13;84.29;101348.28;5043445;28;20608;-66
2020/12/21 06:01:04;;;;;;;13.43;7.70;;;;;;;5.11;84.37;101340.41;5039882;28;20202;-66
2020/12/21 06:03:37;;;;;;;9.40;7.03;;;;;;;5.11;84.13;101344.81;5051624;28;20209;-66
2020/12/21 06:06:07;;;;;;;10.77;7.10;;;;;;;5.11;84.27;101350.09;5049790;28;20240;-66
2020/12/21 06:08:34;;;;;;;13.93;7.90;;;;;;;5.10;84.27;101332.50;5032270;28;20306;-66
2020/12/21 06:11:09;;;;;;;11.50;7.97;;;;;;;5.08;84.12;101347.53;5044915;28;20226;-66
2020/12/21 06:13:39;;;;;;;13.23;7.47;;;;;;;5.07;84.33;101344.03;5031864;28;20576;-66
2020/12/21 06:16:07;;;;;;;13.60;8.10;;;;;;;5.06;84.18;101336.16;5031609;28;20214;-66
2020/12/21 06:18:33;;;;;;;11.77;7.63;;;;;;;5.05;84.03;101344.97;5035048;28;20230;-66
2020/12/21 06:20:59;;;;;;;14.83;8.43;;;;;;;5.04;84.48;101345.88;5043978;28;20201;-66
2020/12/21 06:23:37;;;;;;;13.43;7.30;;;;;;;5.04;84.16;101353.81;5050107;28;20562;-66
2020/12/21 06:26:13;;;;;;;11.57;7.23;;;;;;;5.04;84.29;101359.09;5038765;28;20682;-66
2020/12/21 06:28:40;;;;;;;14.37;7.33;;;;;;;5.03;83.98;101358.22;5050482;28;20221;-66
2020/12/21 06:31:17;;;;;;;11.93;7.87;;;;;;;5.05;84.34;101358.19;5044442;28;20236;-66
2020/12/21 06:33:44;;;;;;;12.80;7.40;;;;;;;5.04;84.03;101359.09;5040306;28;20667;-65
2020/12/21 06:36:11;;;;;;;10.43;7.57;;;;;;;5.05;84.22;101371.38;5055311;28;20201;-65
2020/12/21 06:38:48;;;;;;;9.40;6.97;;;;;;;5.03;84.06;101370.56;5040874;28;20264;-65
2020/12/21 06:41:23;;;;;;;13.33;7.80;;;;;;;5.04;84.06;101374.94;5046809;28;20206;-65
2020/12/21 06:44:00;;;;;;;10.40;6.70;;;;;;;5.02;84.19;101377.59;5049866;28;20208;-65
2020/12/21 06:46:28;;;;;;;12.53;7.47;;;;;;;5.02;84.14;101376.75;5049854;28;20205;-65
2020/12/21 06:49:16;;;;;;;10.97;6.83;;;;;;;5.01;84.29;101375.03;5040566;28;20229;-65
2020/12/21 06:51:44;;;;;;;12.77;7.67;;;;;;;4.99;84.26;101375.09;5036473;28;20210;-65
2020/12/21 06:54:11;;;;;;;11.30;7.27;;;;;;;4.99;84.26;101374.22;5047965;28;20202;-65
2020/12/21 06:56:38;;;;;;;12.73;7.10;;;;;;;4.97;83.97;101373.41;5036705;28;20206;-66
2020/12/21 06:59:09;;;;;;;9.90;7.30;;;;;;;4.94;84.00;101369.06;5036291;28;20238;-66
2020/12/21 07:01:37;;;;;;;10.87;7.57;;;;;;;4.94;84.00;101369.06;5037433;28;20214;-64
2020/12/21 07:04:03;;;;;;;10.80;6.90;;;;;;;4.92;83.97;101370.00;5034046;28;20202;-66
2020/12/21 07:06:29;;;;;;;11.40;6.67;;;;;;;4.90;84.03;101359.50;5046478;28;20213;-66
2020/12/21 07:08:59;;;;;;;13.43;7.47;;;;;;;4.88;83.83;101364.81;5037087;28;20261;-65
2020/12/21 07:11:25;;;;;;;10.33;6.70;;;;;;;4.87;84.30;101365.72;5047336;28;20260;-66
2020/12/21 07:13:52;;;;;;;13.13;7.00;;;;;;;4.89;84.29;101371.81;5050169;28;20208;-66
2020/12/21 07:16:19;;;;;;;11.70;6.97;;;;;;;4.88;84.05;101370.09;5043713;28;20202;-66
2020/12/21 07:18:48;;;;;;;11.40;7.13;;;;;;;4.89;84.21;101368.31;5048958;28;20225;-66
2020/12/21 07:21:15;;;;;;;12.37;7.27;;;;;;;4.87;83.80;101368.38;5052408;28;20200;-66
2020/12/21 07:23:42;;;;;;;11.10;6.07;;;;;;;4.87;83.78;101367.50;5052145;28;20578;-66
2020/12/21 07:26:09;;;;;;;9.37;5.90;;;;;;;4.86;83.86;101371.91;5052158;28;20301;-66
2020/12/21 07:28:35;;;;;;;10.10;5.70;;;;;;;4.87;84.18;101372.78;5047362;28;20226;-66
2020/12/21 07:31:06;;;;;;;13.80;6.23;;;;;;;4.89;84.05;101376.25;5053423;28;20217;-66
2020/12/21 07:33:34;;;;;;;9.83;5.83;;;;;;;4.92;84.34;101380.56;5039076;28;20206;-66
2020/12/21 07:36:02;;;;;;;9.53;5.83;;;;;;;4.96;84.05;101382.22;5052959;28;20292;-66
2020/12/21 07:38:28;;;;;;;10.50;6.20;;;;;;;5.00;84.42;101375.94;5053054;28;20763;-66
2020/12/21 07:40:55;;;;;;;11.07;5.40;;;;;;;5.04;84.21;101369.66;5049385;28;20292;-66
2020/12/21 07:43:26;;;;;;;9.20;5.80;;;;;;;5.05;83.89;101366.09;5050189;28;20202;-66
2020/12/21 07:45:58;;;;;;;12.03;5.77;;;;;;;5.08;83.89;101373.94;5045953;28;20209;-66
2020/12/21 07:48:25;;;;;;;9.50;6.37;;;;;;;5.09;84.18;101378.31;5051485;28;20275;-66
2020/12/21 07:50:52;;;;;;;10.57;6.13;;;;;;;5.09;84.01;101373.03;5040185;28;20229;-66
2020/12/21 07:53:19;;;;;;;11.90;5.50;;;;;;;5.10;83.82;101372.13;5051104;28;20252;-66
2020/12/21 07:55:56;;;;;;;9.30;4.83;;;;;;;5.11;84.00;101366.81;5044407;28;20208;-65
2020/12/21 07:58:22;;;;;;;8.77;4.73;;;;;;;5.12;84.03;101365.88;5032987;28;20221;-65
2020/12/21 08:00:55;;;;;;;12.70;4.90;;;;;;;5.13;83.88;101372.03;5047179;28;20212;-65
2020/12/21 08:03:23;;;;;;;8.30;4.90;;;;;;;5.16;83.75;101369.31;5041820;28;20205;-65
2020/12/21 08:05:50;;;;;;;11.23;4.60;;;;;;;5.17;83.59;101371.91;5047996;28;20301;-65
2020/12/21 08:08:22;;;;;;;9.97;5.07;;;;;;;5.19;83.49;101377.16;5050506;28;20226;-65
2020/12/21 08:10:56;;;;;;;10.87;5.23;;;;;;;5.19;83.33;101377.16;5048713;28;20222;-65
2020/12/21 08:13:22;;;;;;;8.77;4.90;;;;;;;5.18;83.57;101370.13;5045274;28;20207;-65
2020/12/21 08:15:48;;;;;;;9.10;4.83;;;;;;;5.19;83.53;101370.09;5048006;28;20275;-65
2020/12/21 08:18:14;;;;;;;8.00;4.50;;;;;;;5.20;83.17;101361.22;5046785;28;20797;-65
2020/12/21 08:20:49;;;;;;;9.07;5.27;;;;;;;5.25;83.33;101358.47;5047218;28;20201;-65
2020/12/21 08:23:22;;;;;;;8.23;4.93;;;;;;;5.28;83.31;101357.50;5044906;28;20677;-66
2020/12/21 08:25:48;;;;;;;9.13;5.63;;;;;;;5.31;83.03;101355.66;5046930;28;20202;-66
2020/12/21 08:28:25;;;;;;;6.40;4.43;;;;;;;5.32;82.90;101346.81;5047731;28;20724;-65
2020/12/21 08:31:06;;;;;;;8.27;4.87;;;;;;;5.34;83.15;101346.75;5044715;28;20229;-65
2020/12/21 08:33:32;;;;;;;9.73;5.13;;;;;;;5.35;83.01;101346.72;5044036;28;20202;-65
2020/12/21 08:36:16;;;;;;;6.03;4.83;;;;;;;5.39;83.01;101345.69;5049237;28;20657;-65
2020/12/21 08:38:42;;;;;;;8.77;5.20;;;;;;;5.40;83.06;101354.47;5049945;28;20325;-65
2020/12/21 08:41:08;;;;;;;9.60;5.10;;;;;;;5.42;83.01;101356.16;5040418;28;20204;-65
2020/12/21 08:43:35;;;;;;;10.80;5.73;;;;;;;5.45;82.91;101349.94;5046719;28;20206;-65
2020/12/21 08:46:05;;;;;;;9.70;6.17;;;;;;;5.47;82.84;101348.97;5048261;28;20198;-65
2020/12/21 08:48:31;;;;;;;9.53;5.50;;;;;;;5.51;82.62;101345.34;5049265;28;20228;-65
2020/12/21 08:50:57;;;;;;;9.30;5.20;;;;;;;5.54;82.57;101350.53;5048298;28;20225;-65
2020/12/21 08:53:23;;;;;;;12.00;5.40;;;;;;;5.57;83.11;101344.25;5040612;28;20224;-65
2020/12/21 08:55:49;;;;;;;9.67;4.70;;;;;;;5.62;82.73;101347.63;5042342;28;20666;-64
2020/12/21 08:58:15;;;;;;;7.03;4.30;;;;;;;5.66;82.33;101354.53;5046284;28;20241;-65
2020/12/21 09:00:42;;;;;;;13.70;5.90;;;;;;;5.70;82.42;101357.97;5044554;28;20217;-65
2020/12/21 09:03:08;;;;;;;12.10;5.53;;;;;;;5.73;82.41;101355.22;5047499;28;20209;-65
2020/12/21 09:05:37;;;;;;;10.30;4.90;;;;;;;5.78;82.17;101353.28;5050232;28;20571;-65
2020/12/21 09:08:03;;;;;;;11.83;4.83;;;;;;;5.82;82.44;101353.13;5048925;28;20221;-65
2020/12/21 09:10:29;;;;;;;8.90;5.03;;;;;;;5.89;82.53;101360.00;5048685;28;20229;-66
2020/12/21 09:12:55;;;;;;;8.40;5.00;;;;;;;5.95;82.41;101356.25;5048728;28;20202;-65
2020/12/21 09:15:21;;;;;;;8.13;3.80;;;;;;;6.00;81.72;101366.69;5047047;28;20585;-66
2020/12/21 09:17:48;;;;;;;9.33;4.80;;;;;;;6.02;82.14;101368.38;5048523;28;20306;-65
2020/12/21 09:20:14;;;;;;;8.77;4.47;;;;;;;6.06;81.74;101364.72;5046960;28;20201;-65
2020/12/21 09:22:40;;;;;;;7.07;4.37;;;;;;;6.09;81.48;101364.59;5047987;28;20206;-65
2020/12/21 09:25:06;;;;;;;7.03;4.90;;;;;;;6.12;81.54;101359.22;5048327;28;20215;-63
2020/12/21 09:27:32;;;;;;;11.30;4.37;;;;;;;6.16;81.04;101359.97;5044779;28;20217;-63
2020/12/21 09:30:16;;;;;;;6.00;4.13;;;;;;;6.20;81.12;101358.97;5048014;28;20221;-65
2020/12/21 09:32:42;;;;;;;8.83;4.43;;;;;;;6.24;81.28;101352.66;5048852;28;20263;-64
2020/12/21 09:35:09;;;;;;;7.77;4.37;;;;;;;6.28;80.90;101355.13;5043377;28;20206;-63
2020/12/21 09:37:35;;;;;;;8.73;4.57;;;;;;;6.36;80.66;101359.31;5045561;28;20295;-64
2020/12/21 09:40:01;;;;;;;7.17;3.53;;;;;;;6.43;80.22;101358.19;5043683;28;20266;-65
2020/12/21 09:42:27;;;;;;;9.27;4.80;;;;;;;6.50;80.52;101349.97;5037231;28;20662;-65
2020/12/21 09:44:53;;;;;;;8.03;3.70;;;;;;;6.57;80.07;101345.31;5044519;28;20202;-65
2020/12/21 09:47:19;;;;;;;4.70;3.50;;;;;;;6.61;79.80;101342.53;5038297;28;20222;-65
2020/12/21 09:49:49;;;;;;;9.10;3.47;;;;;;;6.69;80.08;101334.28;5036654;28;20726;-64
2020/12/21 09:52:16;;;;;;;7.20;3.23;;;;;;;6.72;79.86;101328.03;5035259;28;20206;-64
2020/12/21 09:54:42;;;;;;;8.03;3.70;;;;;;;6.75;80.02;101328.78;5045625;28;20552;-64
2020/12/21 09:57:08;;;;;;;8.33;3.90;;;;;;;6.77;79.70;101332.22;5047134;28;20247;-64
2020/12/21 09:59:34;;;;;;;10.57;3.43;;;;;;;6.80;79.13;101325.97;5047917;28;20212;-64
2020/12/21 10:02:00;;;;;;;7.10;3.63;;;;;;;6.81;78.83;101323.22;5049866;28;20206;-63
2020/12/21 10:04:26;;;;;;;10.20;4.63;;;;;;;6.82;78.64;101326.75;5047407;28;20216;-65
2020/12/21 10:06:52;;;;;;;9.07;4.77;;;;;;;6.80;79.12;101313.59;5043277;28;20198;-65
2020/12/21 10:09:19;;;;;;;6.60;3.97;;;;;;;6.80;79.00;101313.59;5044656;28;20221;-63
2020/12/21 10:11:45;;;;;;;6.53;3.87;;;;;;;6.81;78.30;101306.47;5044442;28;20299;-63
2020/12/21 10:14:11;;;;;;;7.67;3.93;;;;;;;6.81;77.97;101314.44;5045214;28;20205;-63
2020/12/21 10:16:37;;;;;;;7.33;3.83;;;;;;;6.82;77.79;101308.22;5044194;28;20210;-64
2020/12/21 10:19:03;;;;;;;9.27;4.67;;;;;;;6.81;77.84;101299.41;5044888;28;20308;-63
2020/12/21 10:21:29;;;;;;;7.17;3.70;;;;;;;6.81;77.35;101312.63;5042012;28;20206;-65
2020/12/21 10:23:55;;;;;;;10.07;5.50;;;;;;;6.79;77.06;101303.06;5046376;28;20213;-70
2020/12/21 10:26:23;;;;;;;11.27;4.60;;;;;;;6.78;77.78;101296.03;5043371;28;20202;-70
2020/12/21 10:28:49;;;;;;;12.73;4.63;;;;;;;6.75;77.31;101283.78;5047816;28;20232;-69
2020/12/21 10:31:15;;;;;;;6.67;3.47;;;;;;;6.73;77.18;101282.09;5044624;28;20257;-71
2020/12/21 10:33:41;;;;;;;7.27;4.00;;;;;;;6.71;77.55;101278.63;5047968;28;20228;-69
2020/12/21 10:36:07;;;;;;;10.17;5.10;;;;;;;6.71;77.19;101281.28;5047149;28;20201;-71
2020/12/21 10:38:34;;;;;;;7.70;4.40;;;;;;;6.72;76.90;101269.78;5046321;28;20605;-71
2020/12/21 10:41:00;;;;;;;11.50;5.33;;;;;;;6.71;76.70;101266.28;5042537;28;20581;-72
2020/12/21 10:43:26;;;;;;;10.73;4.80;;;;;;;6.74;76.92;101255.56;5045725;28;20209;-71
2020/12/21 10:45:52;;;;;;;7.63;4.40;;;;;;;6.78;77.08;101249.25;5048528;28;20559;-71
2020/12/21 10:48:18;;;;;;;6.60;4.50;;;;;;;6.82;77.16;101255.25;5047012;28;20225;-73
2020/12/21 10:50:45;;;;;;;7.83;3.93;;;;;;;6.88;77.17;101253.25;5049337;28;20276;-73
2020/12/21 10:53:12;;;;;;;9.87;4.83;;;;;;;6.94;76.83;101250.38;5044951;28;20202;-71
2020/12/21 10:55:38;;;;;;;8.47;5.00;;;;;;;7.01;77.54;101245.69;5041653;28;20618;-72
2020/12/21 10:58:04;;;;;;;11.43;5.03;;;;;;;7.09;77.82;101250.69;5052072;28;20241;-71
2020/12/21 11:00:31;;;;;;;9.07;3.90;;;;;;;7.15;77.34;101237.22;5048103;28;20698;-72
2020/12/21 11:02:57;;;;;;;7.67;3.80;;;;;;;7.21;76.65;101232.53;5047234;28;20213;-72
2020/12/21 11:05:23;;;;;;;8.23;4.93;;;;;;;7.27;77.14;101237.59;5047546;28;20205;-72
2020/12/21 11:07:49;;;;;;;8.40;4.80;;;;;;;7.33;77.22;101231.19;5049052;28;20225;-73
2020/12/21 11:10:15;;;;;;;6.80;3.80;;;;;;;7.39;76.89;101222.97;5051032;28;20286;-72
2020/12/21 11:12:41;;;;;;;7.00;3.80;;;;;;;7.43;76.66;101216.63;5051828;28;20205;-72
2020/12/21 11:15:07;;;;;;;6.43;3.33;;;;;;;7.45;76.13;101209.47;5049332;28;20205;-71
2020/12/21 11:17:34;;;;;;;9.63;4.90;;;;;;;7.50;76.07;101207.50;5048255;28;20312;-71
2020/12/21 11:20:01;;;;;;;10.77;3.97;;;;;;;7.55;75.93;101209.94;5045589;28;20206;-75
2020/12/21 11:22:28;;;;;;;7.80;4.00;;;;;;;7.58;76.25;101199.22;5043614;28;20210;-73
2020/12/21 11:24:54;;;;;;;6.93;3.23;;;;;;;7.60;75.44;101198.22;5039696;28;20209;-72
2020/12/21 11:27:20;;;;;;;6.50;4.17;;;;;;;7.62;75.66;101198.16;5048062;28;20349;-73
2020/12/21 11:29:47;;;;;;;6.37;3.70;;;;;;;7.63;75.26;101200.75;5049166;28;20560;-73